Time;durP1;ratioP1;P1;durP2;ratioP2;P2;SDS_P1;SDS_P2;PMS_P1;PMS_P2;Temp;Humidity;BMP_temperature;BMP_pressure;BME280_temperature;BME280_humidity;BME280_pressure;Samples;Min_cycle;Max_cycle;Signal;HPM_P1;HPM_P2
2022/05/31 00:01:56;;;;;;;12.63;12.33;;;20.80;57.90;;;;;;5054025;28;20460;-69
2022/05/31 00:04:23;;;;;;;12.60;12.30;;;20.80;57.90;;;;;;5054194;28;20506;-68
2022/05/31 00:06:50;;;;;;;12.40;12.00;;;20.80;58.00;;;;;;5053698;28;20938;-69
2022/05/31 00:09:17;;;;;;;12.90;12.53;;;20.80;58.00;;;;;;5053587;28;20450;-68
2022/05/31 00:11:44;;;;;;;12.87;12.47;;;20.80;58.00;;;;;;5053939;28;20483;-68
2022/05/31 00:14:14;;;;;;;12.93;12.53;;;20.80;58.10;;;;;;5053813;28;20449;-68
2022/05/31 00:16:41;;;;;;;12.50;12.20;;;20.80;58.20;;;;;;5053816;28;20448;-69
2022/05/31 00:19:08;;;;;;;12.80;12.50;;;20.70;58.10;;;;;;5053421;28;20456;-68
2022/05/31 00:21:41;;;;;;;13.40;13.00;;;20.70;58.20;;;;;;5053576;28;20464;-68
2022/05/31 00:24:10;;;;;;;13.40;12.90;;;20.70;58.20;;;;;;5053702;28;20994;-68
2022/05/31 00:26:38;;;;;;;13.20;12.80;;;20.80;58.20;;;;;;5053621;28;20460;-68
2022/05/31 00:29:05;;;;;;;13.60;13.20;;;20.70;58.20;;;;;;5053126;28;20493;-69
2022/05/31 00:31:33;;;;;;;13.80;13.40;;;20.70;58.30;;;;;;5053427;28;20476;-67
2022/05/31 00:34:00;;;;;;;13.60;13.10;;;20.70;58.30;;;;;;5053631;28;20435;-68
2022/05/31 00:36:27;;;;;;;13.33;12.90;;;20.70;58.30;;;;;;5053398;28;20939;-68
2022/05/31 00:38:55;;;;;;;13.20;12.80;;;20.70;58.30;;;;;;5052225;28;20456;-68
2022/05/31 00:41:25;;;;;;;13.23;12.83;;;20.70;58.40;;;;;;5053369;28;20486;-68
2022/05/31 00:43:52;;;;;;;13.10;12.70;;;20.70;58.40;;;;;;5053287;28;20787;-69
2022/05/31 00:46:22;;;;;;;13.23;12.83;;;20.70;58.50;;;;;;5053292;28;20486;-68
2022/05/31 00:48:55;;;;;;;13.50;13.00;;;20.70;58.50;;;;;;5052733;28;20448;-68
2022/05/31 00:51:23;;;;;;;13.73;13.33;;;20.70;58.50;;;;;;5052888;28;20469;-68
2022/05/31 00:53:54;;;;;;;13.80;13.30;;;20.70;58.50;;;;;;5053059;28;20444;-68
2022/05/31 00:56:23;;;;;;;13.07;12.73;;;20.70;58.50;;;;;;5053279;28;20444;-68
2022/05/31 00:58:56;;;;;;;13.57;13.17;;;20.60;58.40;;;;;;5052567;28;20448;-69
2022/05/31 01:01:24;;;;;;;13.00;12.60;;;20.60;58.50;;;;;;5052955;28;20475;-68
2022/05/31 01:03:52;;;;;;;13.73;13.33;;;20.60;58.50;;;;;;5052836;28;20460;-69
2022/05/31 01:06:19;;;;;;;13.40;13.00;;;20.60;58.60;;;;;;5052838;28;20447;-68
2022/05/31 01:08:47;;;;;;;13.53;13.07;;;20.60;58.60;;;;;;5052395;28;20452;-68
2022/05/31 01:11:15;;;;;;;13.27;12.87;;;20.60;59.20;;;;;;5052714;28;20468;-69
2022/05/31 01:13:42;;;;;;;13.63;13.23;;;20.60;58.70;;;;;;5052804;28;20452;-67
2022/05/31 01:16:12;;;;;;;13.70;13.30;;;20.60;58.70;;;;;;5052707;28;20478;-68
2022/05/31 01:18:39;;;;;;;13.00;12.67;;;20.60;58.70;;;;;;5052354;28;20455;-68
2022/05/31 01:21:08;;;;;;;13.60;13.17;;;20.60;58.70;;;;;;5052226;28;20469;-68
2022/05/31 01:23:50;;;;;;;13.73;13.33;;;20.60;58.70;;;;;;5052629;28;20962;-68
2022/05/31 01:26:27;;;;;;;13.60;13.20;;;20.60;58.80;;;;;;5052502;28;20447;-68
2022/05/31 01:29:03;;;;;;;13.30;12.90;;;20.60;58.80;;;;;;5051959;28;20452;-68
2022/05/31 01:31:34;;;;;;;13.73;13.30;;;20.50;58.70;;;;;;5052244;28;20476;-68
2022/05/31 01:34:07;;;;;;;13.83;13.43;;;20.50;58.70;;;;;;5052423;28;20444;-69
2022/05/31 01:36:39;;;;;;;13.67;13.17;;;20.60;58.80;;;;;;5051971;28;20444;-68
2022/05/31 01:39:12;;;;;;;12.97;12.57;;;20.60;58.80;;;;;;5051965;28;20811;-69
2022/05/31 01:41:45;;;;;;;13.80;13.40;;;20.50;58.70;;;;;;5052112;28;20970;-68
2022/05/31 01:44:16;;;;;;;14.67;14.13;;;20.60;58.80;;;;;;5052115;28;20480;-68
2022/05/31 01:46:43;;;;;;;13.60;13.20;;;20.50;58.70;;;;;;5052069;28;20451;-69
2022/05/31 01:49:13;;;;;;;13.70;13.30;;;20.50;58.70;;;;;;5051984;28;20451;-68
2022/05/31 01:51:43;;;;;;;13.43;13.03;;;20.50;58.80;;;;;;5051893;28;20897;-69
2022/05/31 01:54:11;;;;;;;13.80;13.30;;;20.50;58.80;;;;;;5052221;28;20436;-68
2022/05/31 01:56:41;;;;;;;13.30;12.93;;;20.50;58.80;;;;;;5051725;28;20444;-68
2022/05/31 01:59:08;;;;;;;14.00;13.60;;;20.50;58.70;;;;;;5051734;28;20947;-68
2022/05/31 02:01:38;;;;;;;13.63;13.23;;;20.50;58.80;;;;;;5052097;28;21013;-68
2022/05/31 02:04:06;;;;;;;13.67;13.27;;;20.50;58.80;;;;;;5051774;28;20822;-69
2022/05/31 02:06:35;;;;;;;13.30;12.90;;;20.50;58.80;;;;;;5051668;28;20449;-68
2022/05/31 02:09:06;;;;;;;13.70;13.30;;;20.50;58.80;;;;;;5051602;28;20482;-68
2022/05/31 02:11:34;;;;;;;13.03;12.63;;;20.50;58.80;;;;;;5051883;28;20468;-68
2022/05/31 02:14:01;;;;;;;13.40;13.00;;;20.50;58.90;;;;;;5051697;28;20444;-68
2022/05/31 02:16:28;;;;;;;13.33;12.93;;;20.50;58.90;;;;;;5051521;28;20444;-68
2022/05/31 02:21:39;;;;;;;13.80;13.40;;;20.50;58.90;;;;;;5044330;28;20454;-68
2022/05/31 02:24:10;;;;;;;13.97;13.47;;;20.50;58.90;;;;;;5051605;28;20432;-68
2022/05/31 02:26:39;;;;;;;13.93;13.53;;;20.50;58.90;;;;;;5051329;28;20502;-69
2022/05/31 02:29:06;;;;;;;13.47;12.97;;;20.50;59.00;;;;;;5051540;28;20454;-68
2022/05/31 02:31:33;;;;;;;13.30;12.90;;;20.40;58.90;;;;;;5051395;28;20486;-68
2022/05/31 02:34:00;;;;;;;13.43;13.03;;;20.50;59.00;;;;;;5051788;28;20452;-69
2022/05/31 02:36:27;;;;;;;13.10;12.70;;;20.50;59.00;;;;;;5051419;28;20440;-68
2022/05/31 02:38:54;;;;;;;14.37;13.97;;;20.40;59.00;;;;;;5051163;28;20447;-69
2022/05/31 02:41:23;;;;;;;13.93;13.53;;;20.40;59.00;;;;;;5051226;28;20475;-68
2022/05/31 02:43:50;;;;;;;14.03;13.63;;;20.40;59.00;;;;;;5051536;28;20466;-68
2022/05/31 02:46:16;;;;;;;13.50;13.00;;;20.40;59.10;;;;;;5051067;28;20476;-68
2022/05/31 02:48:43;;;;;;;13.47;13.10;;;20.40;59.10;;;;;;5051042;28;20527;-68
2022/05/31 02:51:10;;;;;;;15.60;15.00;;;20.40;59.10;;;;;;5051497;28;20459;-68
2022/05/31 02:53:37;;;;;;;13.60;13.20;;;20.40;59.10;;;;;;5051305;28;20450;-68
2022/05/31 02:56:04;;;;;;;13.23;12.93;;;20.40;59.10;;;;;;5051085;28;20436;-68
2022/05/31 02:58:33;;;;;;;13.07;12.67;;;20.40;59.10;;;;;;5050992;28;20474;-68
2022/05/31 03:00:59;;;;;;;13.07;12.67;;;20.40;59.10;;;;;;5051157;28;20457;-69
2022/05/31 03:03:26;;;;;;;14.00;13.60;;;20.40;59.20;;;;;;5054455;28;20444;-68
2022/05/31 03:05:54;;;;;;;13.50;13.10;;;20.40;59.10;;;;;;5054836;28;20480;-68
2022/05/31 03:08:20;;;;;;;13.47;13.07;;;20.40;59.20;;;;;;5054860;28;20450;-68
2022/05/31 03:10:51;;;;;;;14.30;13.90;;;20.40;59.20;;;;;;5054973;28;20448;-68
2022/05/31 03:13:23;;;;;;;13.83;13.37;;;20.40;59.20;;;;;;5055237;28;20458;-67
2022/05/31 03:15:54;;;;;;;13.77;13.33;;;20.40;59.20;;;;;;5054822;28;20444;-67
2022/05/31 03:18:24;;;;;;;13.80;13.40;;;20.40;59.20;;;;;;5054776;28;20550;-68
2022/05/31 03:20:54;;;;;;;13.67;13.27;;;20.40;59.30;;;;;;5054837;28;20451;-67
2022/05/31 03:23:26;;;;;;;13.93;13.53;;;20.30;59.30;;;;;;5054778;28;20966;-68
2022/05/31 03:25:55;;;;;;;14.10;13.70;;;20.30;59.50;;;;;;5054412;28;20480;-68
2022/05/31 03:28:23;;;;;;;13.70;13.30;;;20.30;59.60;;;;;;5054305;28;20452;-68
2022/05/31 03:30:51;;;;;;;13.93;13.53;;;20.30;59.70;;;;;;5054448;28;20459;-68
2022/05/31 03:33:19;;;;;;;14.57;13.97;;;20.30;59.70;;;;;;5054683;28;20864;-68
2022/05/31 03:35:46;;;;;;;14.07;13.67;;;20.30;59.80;;;;;;5054440;28;20807;-68
2022/05/31 03:38:13;;;;;;;13.57;13.17;;;20.30;59.80;;;;;;5054428;28;21037;-68
2022/05/31 03:40:58;;;;;;;13.93;13.53;;;20.30;59.90;;;;;;5054514;28;20815;-69
2022/05/31 03:43:26;;;;;;;14.80;14.30;;;20.30;59.90;;;;;;5054614;28;20451;-67
2022/05/31 03:45:55;;;;;;;14.50;14.10;;;20.30;60.00;;;;;;5054043;28;20562;-67
2022/05/31 03:48:22;;;;;;;13.83;13.43;;;20.30;60.00;;;;;;5054171;28;20447;-68
2022/05/31 03:50:58;;;;;;;14.20;13.70;;;20.20;59.90;;;;;;5054229;28;20451;-68
2022/05/31 03:53:25;;;;;;;14.97;14.50;;;20.30;60.00;;;;;;5054029;28;20444;-67
2022/05/31 03:55:51;;;;;;;14.10;13.63;;;20.30;60.10;;;;;;5053981;28;20458;-68
2022/05/31 03:58:18;;;;;;;14.77;14.37;;;20.30;60.00;;;;;;5054249;28;20881;-68
2022/05/31 04:00:46;;;;;;;15.00;14.60;;;20.20;59.90;;;;;;5054063;28;20444;-68
2022/05/31 04:03:14;;;;;;;14.47;14.07;;;20.20;60.00;;;;;;5053768;28;20445;-69
2022/05/31 04:05:42;;;;;;;15.50;15.00;;;20.20;60.00;;;;;;5054284;28;20476;-68
2022/05/31 04:08:11;;;;;;;14.73;14.33;;;20.20;60.00;;;;;;5053794;28;20448;-68
2022/05/31 04:10:39;;;;;;;14.50;14.10;;;20.20;60.00;;;;;;5053900;28;20953;-68
2022/05/31 04:13:06;;;;;;;14.60;14.20;;;20.20;60.00;;;;;;5052723;28;20468;-67
2022/05/31 04:15:34;;;;;;;14.93;14.43;;;20.20;60.10;;;;;;5053565;28;20440;-67
2022/05/31 04:18:01;;;;;;;14.43;14.03;;;20.20;60.10;;;;;;5053548;28;20505;-68
2022/05/31 04:20:30;;;;;;;15.30;14.70;;;20.20;60.10;;;;;;5054039;28;20449;-68
2022/05/31 04:23:57;;;;;;;15.00;14.40;;;20.30;60.10;;;;;;5053478;28;20498;-68
2022/05/31 04:25:45;;;;;;;14.23;13.83;;;20.30;60.30;;;;;;5053502;28;20909;-68
2022/05/31 04:28:12;;;;;;;14.90;14.40;;;20.30;61.80;;;;;;5053400;28;20456;-68
2022/05/31 04:30:38;;;;;;;15.53;14.93;;;20.40;63.50;;;;;;5053617;28;20765;-68
2022/05/31 04:33:05;;;;;;;17.80;16.50;;;20.40;65.00;;;;;;5061330;22;20497;-66
2022/05/31 04:35:33;;;;;;;17.40;16.47;;;20.40;68.80;;;;;;5033531;28;20780;-66
2022/05/31 04:38:00;;;;;;;16.80;15.73;;;20.40;69.60;;;;;;5033393;28;20449;-65
2022/05/31 04:40:27;;;;;;;16.60;15.80;;;20.40;73.10;;;;;;5033633;28;20445;-65
2022/05/31 04:42:54;;;;;;;16.47;15.47;;;20.40;71.30;;;;;;5033056;28;20457;-66
2022/05/31 04:45:21;;;;;;;17.23;15.70;;;20.40;72.40;;;;;;5033346;28;20518;-66
2022/05/31 04:47:48;;;;;;;16.10;15.30;;;20.40;72.60;;;;;;5033375;28;20453;-65
2022/05/31 04:50:14;;;;;;;16.37;15.53;;;20.40;72.00;;;;;;5033230;28;20465;-66
2022/05/31 04:52:42;;;;;;;16.50;15.77;;;20.40;71.50;;;;;;5033231;28;20472;-65
2022/05/31 04:55:09;;;;;;;19.30;17.60;;;20.40;71.20;;;;;;5033276;28;20449;-66
2022/05/31 04:57:36;;;;;;;16.27;15.60;;;20.40;71.00;;;;;;5032978;28;20805;-66
2022/05/31 05:00:06;;;;;;;17.20;16.10;;;20.40;70.80;;;;;;5033088;28;20730;-66
2022/05/31 05:02:33;;;;;;;16.50;15.90;;;20.40;70.60;;;;;;5033120;28;20476;-66
2022/05/31 05:05:00;;;;;;;17.27;16.53;;;20.40;70.40;;;;;;5032914;28;20441;-66
2022/05/31 05:07:30;;;;;;;16.60;15.83;;;20.40;70.20;;;;;;5032880;28;20808;-66
2022/05/31 05:09:58;;;;;;;17.77;16.40;;;20.40;70.10;;;;;;5032864;28;20441;-66
2022/05/31 05:12:25;;;;;;;17.57;16.47;;;20.40;69.90;;;;;;5032829;28;20477;-65
2022/05/31 05:14:51;;;;;;;15.83;15.13;;;20.40;69.60;;;;;;5032786;28;20445;-66
2022/05/31 05:17:18;;;;;;;16.90;16.00;;;20.40;69.50;;;;;;5032700;28;20445;-66
2022/05/31 05:19:45;;;;;;;16.20;15.50;;;20.40;69.30;;;;;;5032683;28;20449;-66
2022/05/31 05:22:12;;;;;;;16.87;15.77;;;20.40;69.10;;;;;;5032527;28;20464;-66
2022/05/31 05:24:38;;;;;;;16.50;15.70;;;20.40;68.90;;;;;;5032212;28;20456;-66
2022/05/31 05:27:07;;;;;;;16.43;15.83;;;20.40;68.70;;;;;;5032305;28;21011;-66
2022/05/31 05:32:17;;;;;;;16.10;15.50;;;20.40;68.60;;;;;;5001727;28;20453;-66
2022/05/31 05:34:43;;;;;;;15.30;14.70;;;20.40;68.10;;;;;;5032565;28;20928;-66
2022/05/31 05:37:10;;;;;;;15.73;15.03;;;20.40;67.90;;;;;;5032274;28;20610;-65
2022/05/31 05:39:37;;;;;;;16.10;15.50;;;20.40;67.70;;;;;;5032404;28;20449;-66
2022/05/31 05:42:04;;;;;;;15.53;14.83;;;20.40;67.60;;;;;;5032188;28;20559;-66
2022/05/31 05:44:32;;;;;;;16.07;15.47;;;20.40;67.30;;;;;;5032055;28;20493;-66
2022/05/31 05:46:59;;;;;;;15.17;14.60;;;20.40;67.30;;;;;;5032184;28;20489;-65
2022/05/31 05:49:26;;;;;;;16.07;15.40;;;20.40;67.10;;;;;;5032125;28;20808;-66
2022/05/31 05:51:58;;;;;;;15.53;15.00;;;20.40;67.00;;;;;;5032106;28;20464;-66
2022/05/31 05:54:25;;;;;;;15.63;14.93;;;20.40;66.80;;;;;;5032194;28;20452;-66
2022/05/31 05:56:51;;;;;;;16.20;15.50;;;20.40;66.60;;;;;;5032129;28;20441;-65
2022/05/31 05:59:20;;;;;;;16.10;15.30;;;20.40;66.50;;;;;;5031916;28;20441;-66
2022/05/31 06:01:51;;;;;;;16.07;15.37;;;20.40;66.40;;;;;;5031934;28;20832;-66
2022/05/31 06:04:22;;;;;;;16.23;15.47;;;20.40;66.20;;;;;;5032039;28;20811;-66
2022/05/31 06:07:00;;;;;;;16.33;15.63;;;20.40;66.10;;;;;;5031649;28;20488;-66
2022/05/31 06:09:27;;;;;;;16.00;15.40;;;20.40;65.90;;;;;;5031879;28;20514;-65
2022/05/31 06:11:59;;;;;;;15.33;14.73;;;20.30;65.80;;;;;;5031686;28;20465;-66
2022/05/31 06:14:31;;;;;;;16.40;15.73;;;20.30;65.60;;;;;;5032090;28;20445;-66
2022/05/31 06:17:02;;;;;;;16.47;15.87;;;20.30;65.50;;;;;;5031582;28;20808;-65
2022/05/31 06:19:32;;;;;;;16.03;15.47;;;20.40;65.60;;;;;;5031944;28;20450;-66
2022/05/31 06:22:00;;;;;;;15.70;15.10;;;20.30;65.40;;;;;;5031672;28;20968;-65
2022/05/31 06:24:29;;;;;;;14.93;14.33;;;20.30;65.30;;;;;;5031654;28;20456;-65
2022/05/31 06:26:56;;;;;;;15.87;15.20;;;20.40;65.40;;;;;;5031367;28;21002;-66
2022/05/31 06:29:22;;;;;;;15.67;14.97;;;20.40;65.30;;;;;;5031644;28;20453;-66
2022/05/31 06:31:49;;;;;;;14.93;14.53;;;20.40;65.20;;;;;;5031628;28;20473;-65
2022/05/31 06:34:17;;;;;;;15.50;14.80;;;20.30;65.00;;;;;;5031486;28;20441;-66
2022/05/31 06:36:44;;;;;;;15.30;14.60;;;20.40;65.00;;;;;;5030653;28;20445;-65
2022/05/31 06:39:11;;;;;;;16.47;15.70;;;20.30;64.80;;;;;;5031445;28;20452;-65
2022/05/31 06:41:38;;;;;;;16.70;15.80;;;20.40;64.80;;;;;;5031415;28;21133;-66
2022/05/31 06:44:05;;;;;;;15.67;15.07;;;20.30;64.60;;;;;;5031519;28;20453;-66
2022/05/31 06:46:32;;;;;;;15.23;14.67;;;20.30;64.60;;;;;;5031321;28;20494;-65
2022/05/31 06:49:00;;;;;;;15.63;15.17;;;20.40;64.60;;;;;;5031246;28;20452;-65
2022/05/31 06:57:05;;;;;;;15.57;14.97;;;20.30;64.30;;;;;;5031284;28;20493;-65
2022/05/31 06:59:32;;;;;;;15.43;14.87;;;20.30;64.30;;;;;;5031286;28;20464;-66
2022/05/31 07:02:04;;;;;;;15.10;14.50;;;20.30;64.30;;;;;;5031437;28;21037;-66
2022/05/31 07:04:31;;;;;;;15.60;15.10;;;20.40;64.30;;;;;;5031205;28;20476;-65
2022/05/31 07:06:59;;;;;;;15.80;15.30;;;20.30;64.20;;;;;;5031033;28;20481;-65
2022/05/31 07:09:26;;;;;;;15.50;14.80;;;20.30;64.10;;;;;;5031173;28;20449;-65
2022/05/31 07:11:55;;;;;;;16.07;15.27;;;20.30;64.00;;;;;;5031077;28;20496;-65
2022/05/31 07:14:22;;;;;;;15.30;14.80;;;20.30;64.00;;;;;;5031301;28;20452;-66
2022/05/31 07:16:49;;;;;;;15.60;15.10;;;20.30;63.90;;;;;;5030913;28;20454;-66
2022/05/31 07:19:16;;;;;;;16.60;16.00;;;20.30;63.90;;;;;;5031035;28;20460;-66
2022/05/31 07:21:43;;;;;;;16.13;15.43;;;20.30;63.90;;;;;;5031244;28;20465;-65
2022/05/31 07:24:12;;;;;;;16.53;15.87;;;20.30;63.80;;;;;;5031133;28;20463;-66
2022/05/31 07:26:39;;;;;;;16.53;15.83;;;20.30;63.80;;;;;;5030961;28;20480;-65
2022/05/31 07:29:06;;;;;;;15.97;15.40;;;20.30;63.80;;;;;;5030888;28;20449;-65
2022/05/31 07:31:35;;;;;;;16.33;15.73;;;20.30;63.80;;;;;;5030853;28;20976;-66
2022/05/31 07:34:01;;;;;;;16.10;15.60;;;20.30;63.70;;;;;;5030996;28;20449;-65
2022/05/31 07:36:28;;;;;;;15.93;15.30;;;20.30;63.70;;;;;;5030997;28;20468;-65
2022/05/31 07:38:55;;;;;;;15.17;14.67;;;20.30;63.60;;;;;;5030742;28;20808;-65
2022/05/31 07:41:23;;;;;;;16.10;15.50;;;20.30;64.30;;;;;;5030747;28;20453;-65
2022/05/31 07:43:50;;;;;;;14.97;14.40;;;20.30;63.60;;;;;;5030893;28;20461;-66
2022/05/31 07:46:19;;;;;;;15.40;14.90;;;20.30;63.50;;;;;;5030856;28;21018;-65
2022/05/31 07:48:46;;;;;;;16.47;15.77;;;20.30;63.50;;;;;;5032717;28;20476;-65
2022/05/31 07:51:12;;;;;;;15.70;14.80;;;20.30;63.50;;;;;;5034497;28;20456;-65
2022/05/31 07:53:39;;;;;;;14.60;14.20;;;20.30;63.50;;;;;;5034379;28;20835;-65
2022/05/31 07:56:08;;;;;;;16.10;15.50;;;20.30;63.50;;;;;;5034285;28;20445;-65
2022/05/31 07:58:36;;;;;;;15.10;14.70;;;20.30;63.50;;;;;;5034053;28;20460;-65
2022/05/31 08:01:06;;;;;;;15.43;14.93;;;20.30;63.50;;;;;;5034532;28;20824;-66
2022/05/31 08:03:34;;;;;;;15.47;14.97;;;20.30;63.40;;;;;;5034305;28;20885;-66
2022/05/31 08:06:03;;;;;;;15.20;14.60;;;20.30;63.40;;;;;;5034187;28;20453;-66
2022/05/31 08:08:30;;;;;;;15.10;14.70;;;20.30;63.40;;;;;;5033890;28;20812;-65
2022/05/31 08:10:57;;;;;;;15.67;15.10;;;20.30;63.40;;;;;;5034029;28;20455;-65
2022/05/31 08:13:24;;;;;;;15.10;14.60;;;20.30;63.40;;;;;;5034100;28;20469;-66
2022/05/31 08:15:52;;;;;;;14.70;14.30;;;20.30;63.30;;;;;;5033926;28;20452;-66
2022/05/31 08:18:19;;;;;;;15.33;14.83;;;20.30;63.20;;;;;;5033742;28;20445;-65
2022/05/31 08:20:45;;;;;;;15.60;15.00;;;20.30;63.30;;;;;;5033869;28;20441;-66
2022/05/31 08:23:12;;;;;;;14.80;14.40;;;20.30;63.20;;;;;;5033677;28;20469;-66
2022/05/31 08:25:39;;;;;;;15.10;14.60;;;20.30;63.20;;;;;;5033841;28;20445;-66
2022/05/31 08:28:06;;;;;;;15.43;14.80;;;20.30;63.20;;;;;;5033722;28;20485;-66
2022/05/31 08:30:33;;;;;;;15.17;14.77;;;20.30;63.20;;;;;;5033662;28;20859;-66
2022/05/31 08:33:01;;;;;;;14.97;14.53;;;20.30;63.20;;;;;;5033711;28;20847;-66
2022/05/31 08:35:28;;;;;;;16.00;15.50;;;20.40;63.30;;;;;;5033646;28;20532;-66
2022/05/31 08:37:55;;;;;;;15.50;15.10;;;20.30;63.10;;;;;;5033277;28;20468;-66
2022/05/31 08:40:22;;;;;;;15.17;14.77;;;20.30;63.10;;;;;;5033565;28;20453;-66
2022/05/31 08:42:52;;;;;;;15.37;14.87;;;20.30;63.10;;;;;;5033536;28;20469;-65
2022/05/31 08:45:38;;;;;;;15.53;15.10;;;20.30;63.10;;;;;;5033402;28;20445;-65
2022/05/31 08:48:15;;;;;;;14.70;14.30;;;20.30;63.00;;;;;;5033099;28;20485;-66
2022/05/31 08:53:43;;;;;;;15.17;14.73;;;20.30;63.00;;;;;;5033357;28;20425;-65
2022/05/31 08:59:06;;;;;;;15.10;14.70;;;20.40;63.10;;;;;;5032698;28;20843;-66
2022/05/31 09:01:40;;;;;;;15.70;15.20;;;20.30;63.00;;;;;;5032604;28;20473;-66
2022/05/31 09:04:17;;;;;;;15.57;15.00;;;20.30;62.90;;;;;;5032834;28;20910;-66
2022/05/31 09:06:48;;;;;;;15.63;15.13;;;20.30;62.90;;;;;;5032804;28;20477;-66
2022/05/31 09:09:19;;;;;;;15.70;15.20;;;20.30;62.90;;;;;;5032957;28;20445;-65
2022/05/31 09:11:56;;;;;;;15.90;15.40;;;20.30;62.90;;;;;;5032892;28;20497;-66
2022/05/31 09:14:28;;;;;;;15.60;15.17;;;20.40;63.00;;;;;;5032886;28;20789;-65
2022/05/31 09:17:01;;;;;;;14.70;14.30;;;20.30;62.90;;;;;;5032739;28;20863;-65
2022/05/31 09:19:36;;;;;;;15.80;15.30;;;20.40;63.00;;;;;;5032767;28;20946;-65
2022/05/31 09:22:03;;;;;;;15.83;15.33;;;20.30;62.90;;;;;;5032630;28;20465;-66
2022/05/31 09:24:30;;;;;;;16.40;15.90;;;20.30;62.80;;;;;;5032632;28;20532;-65
2022/05/31 09:27:04;;;;;;;16.07;15.57;;;20.30;62.80;;;;;;5032481;28;20485;-65
2022/05/31 09:29:53;;;;;;;16.87;16.27;;;20.30;62.80;;;;;;5032447;28;20831;-65
2022/05/31 09:32:32;;;;;;;15.57;15.17;;;20.40;62.90;;;;;;5032239;28;20894;-65
2022/05/31 09:35:12;;;;;;;15.33;14.83;;;20.30;62.80;;;;;;5032315;28;20445;-65
2022/05/31 09:37:56;;;;;;;15.90;15.40;;;20.30;62.80;;;;;;5032222;28;20449;-65
2022/05/31 09:40:35;;;;;;;15.90;15.40;;;20.40;62.90;;;;;;5032414;28;20445;-65
2022/05/31 09:43:07;;;;;;;15.90;15.40;;;20.30;62.70;;;;;;5032350;28;20495;-65
2022/05/31 09:45:36;;;;;;;15.50;15.10;;;20.30;62.70;;;;;;5032300;28;20882;-66
2022/05/31 09:48:05;;;;;;;16.30;15.80;;;20.40;62.80;;;;;;5031946;28;20484;-65
2022/05/31 09:50:34;;;;;;;15.37;14.87;;;20.30;62.70;;;;;;5032125;28;20441;-66
2022/05/31 09:57:05;;;;;;;15.40;15.00;;;20.40;62.80;;;;;;5032333;28;20465;-66
2022/05/31 09:58:36;;;;;;;15.20;14.70;;;20.40;62.80;;;;;;5031763;28;20519;-66
2022/05/31 10:01:06;;;;;;;15.70;15.20;;;20.30;62.60;;;;;;5032207;28;20450;-66
2022/05/31 10:03:38;;;;;;;15.93;15.43;;;20.40;62.70;;;;;;5031934;28;20464;-66
2022/05/31 10:06:12;;;;;;;15.50;15.00;;;20.40;62.70;;;;;;5032017;28;20983;-66
2022/05/31 10:08:39;;;;;;;17.57;16.87;;;20.30;62.60;;;;;;5031569;28;20487;-66
2022/05/31 10:11:10;;;;;;;15.60;15.20;;;20.30;62.50;;;;;;5031701;28;20808;-67
2022/05/31 10:13:40;;;;;;;16.80;16.30;;;20.40;62.60;;;;;;5031843;28;20471;-65
2022/05/31 10:16:20;;;;;;;16.30;15.80;;;20.40;62.80;;;;;;5032149;28;20457;-65
2022/05/31 10:18:51;;;;;;;16.87;16.30;;;20.40;63.20;;;;;;5031549;28;20456;-68
2022/05/31 10:21:33;;;;;;;15.70;15.20;;;20.40;64.50;;;;;;5030620;28;20480;-67
2022/05/31 10:24:06;;;;;;;16.40;15.90;;;20.40;65.70;;;;;;5031866;28;20455;-67
2022/05/31 10:26:37;;;;;;;15.80;15.40;;;20.50;67.30;;;;;;5031988;28;20437;-67
2022/05/31 10:29:11;;;;;;;17.37;16.83;;;20.50;68.30;;;;;;5032043;28;20456;-66
2022/05/31 10:31:40;;;;;;;16.53;16.03;;;20.50;68.50;;;;;;5031159;28;20599;-67
2022/05/31 10:34:33;;;;;;;16.10;15.50;;;20.50;68.60;;;;;;5031686;28;20452;-68
2022/05/31 10:37:04;;;;;;;16.83;16.33;;;20.50;69.10;;;;;;5031950;28;20621;-68
2022/05/31 10:39:34;;;;;;;15.90;15.40;;;20.60;69.00;;;;;;5031905;28;20445;-69
2022/05/31 10:42:02;;;;;;;16.00;15.50;;;20.60;69.10;;;;;;5031839;28;20473;-69
2022/05/31 10:44:33;;;;;;;15.57;15.07;;;20.60;69.20;;;;;;5031798;28;20455;-68
2022/05/31 10:47:03;;;;;;;15.50;15.00;;;20.60;69.50;;;;;;5031357;28;20477;-67
2022/05/31 10:49:32;;;;;;;16.07;15.57;;;20.70;69.70;;;;;;5031096;28;20449;-67
2022/05/31 10:52:09;;;;;;;15.80;15.30;;;20.60;69.20;;;;;;5031307;28;20461;-67
2022/05/31 10:54:49;;;;;;;16.57;15.97;;;20.70;69.80;;;;;;5031407;28;20449;-66
2022/05/31 10:57:29;;;;;;;16.47;15.80;;;20.70;70.10;;;;;;5031224;28;20445;-67
2022/05/31 11:00:08;;;;;;;15.77;15.27;;;20.70;70.10;;;;;;5031146;28;20453;-67
2022/05/31 11:03:08;;;;;;;16.60;16.10;;;20.70;70.20;;;;;;5031502;28;20469;-67
2022/05/31 11:05:46;;;;;;;16.57;16.07;;;20.70;70.10;;;;;;5032270;28;20442;-66
2022/05/31 11:11:32;;;;;;;16.00;15.60;;;20.70;69.80;;;;;;5031753;28;20440;-67
2022/05/31 11:14:15;;;;;;;15.60;15.10;;;20.70;69.80;;;;;;5031951;28;20452;-67
2022/05/31 11:16:50;;;;;;;16.07;15.57;;;20.70;69.60;;;;;;5032100;28;20448;-67
2022/05/31 11:19:33;;;;;;;15.67;15.27;;;20.70;69.30;;;;;;5031503;28;20855;-67
2022/05/31 11:22:13;;;;;;;15.40;14.90;;;20.70;69.00;;;;;;5031527;28;20875;-67
2022/05/31 11:25:12;;;;;;;16.90;16.30;;;20.70;68.60;;;;;;5035316;28;20445;-66
2022/05/31 11:27:48;;;;;;;16.37;15.87;;;20.70;68.40;;;;;;5035312;28;20843;-67
2022/05/31 11:30:21;;;;;;;16.50;16.00;;;20.80;68.20;;;;;;5035817;28;20444;-67
2022/05/31 11:33:03;;;;;;;15.70;15.30;;;20.80;67.90;;;;;;5035000;28;20481;-66
2022/05/31 11:35:43;;;;;;;15.73;15.27;;;20.80;67.80;;;;;;5035268;28;20475;-67
2022/05/31 11:38:16;;;;;;;15.63;15.23;;;20.80;67.60;;;;;;5035127;28;20444;-67
2022/05/31 11:40:54;;;;;;;15.67;15.27;;;20.80;67.40;;;;;;5035411;28;20804;-66
2022/05/31 11:43:54;;;;;;;15.80;15.20;;;20.80;67.30;;;;;;5035403;28;20471;-66
2022/05/31 11:46:27;;;;;;;15.70;15.30;;;20.80;67.20;;;;;;5024474;28;20464;-66
2022/05/31 11:48:59;;;;;;;16.83;16.33;;;20.80;66.90;;;;;;5034950;28;20480;-67
2022/05/31 11:51:40;;;;;;;16.40;15.93;;;20.80;66.80;;;;;;5034969;28;20464;-67
2022/05/31 11:54:25;;;;;;;16.70;16.20;;;20.80;66.70;;;;;;5035645;28;20455;-66
2022/05/31 11:57:05;;;;;;;16.07;15.60;;;20.80;66.50;;;;;;5034885;28;20449;-67
2022/05/31 11:59:37;;;;;;;16.33;15.83;;;20.80;66.40;;;;;;5035054;28;20441;-67
2022/05/31 12:02:11;;;;;;;16.00;15.50;;;20.90;66.40;;;;;;5034851;28;20800;-67
2022/05/31 12:04:43;;;;;;;15.13;14.73;;;20.90;66.30;;;;;;5034842;28;20457;-67
2022/05/31 12:07:16;;;;;;;16.03;15.63;;;20.90;66.10;;;;;;5034590;28;20455;-67
2022/05/31 12:09:49;;;;;;;15.60;15.20;;;20.90;66.00;;;;;;5034796;28;20936;-67
2022/05/31 12:12:23;;;;;;;15.60;15.20;;;20.90;65.90;;;;;;5034918;28;20554;-66
2022/05/31 12:14:53;;;;;;;16.00;15.50;;;20.90;65.80;;;;;;5034933;28;20789;-66
2022/05/31 12:17:27;;;;;;;16.10;15.60;;;20.90;65.70;;;;;;5034501;28;20445;-66
2022/05/31 12:20:01;;;;;;;16.30;15.80;;;20.90;65.60;;;;;;5034486;28;20441;-66
2022/05/31 12:22:34;;;;;;;15.90;15.40;;;20.90;65.50;;;;;;5034907;28;20508;-66
2022/05/31 12:25:07;;;;;;;16.20;15.70;;;20.90;65.40;;;;;;5034139;28;20445;-67
2022/05/31 12:27:42;;;;;;;17.00;16.50;;;20.90;65.30;;;;;;5034254;28;20477;-67
2022/05/31 12:30:18;;;;;;;16.70;16.30;;;20.90;65.20;;;;;;5034570;28;20464;-66
2022/05/31 12:32:47;;;;;;;15.50;15.10;;;20.90;65.20;;;;;;5034593;28;20476;-66
2022/05/31 12:35:47;;;;;;;15.30;14.90;;;20.90;65.10;;;;;;5032841;28;20445;-66
2022/05/31 12:38:14;;;;;;;15.63;15.23;;;21.00;65.20;;;;;;5034223;28;20445;-66
2022/05/31 12:40:49;;;;;;;16.83;16.33;;;21.00;65.10;;;;;;5034471;28;20449;-66
2022/05/31 12:43:51;;;;;;;16.20;15.70;;;21.00;65.10;;;;;;5034153;28;20466;-66
2022/05/31 12:46:34;;;;;;;15.80;15.30;;;21.00;65.00;;;;;;5034300;28;20941;-66
2022/05/31 12:49:05;;;;;;;15.80;15.40;;;21.00;64.90;;;;;;5033974;28;20551;-66
2022/05/31 12:51:32;;;;;;;16.23;15.73;;;21.00;64.90;;;;;;5033649;28;21058;-66
2022/05/31 12:54:03;;;;;;;16.80;16.30;;;21.00;64.80;;;;;;5034015;28;20544;-66
2022/05/31 12:56:56;;;;;;;16.13;15.63;;;21.00;64.80;;;;;;5033849;28;20804;-66
2022/05/31 12:59:46;;;;;;;15.30;14.90;;;21.00;64.70;;;;;;5032336;28;20445;-67
2022/05/31 13:02:23;;;;;;;16.60;16.10;;;21.00;64.60;;;;;;5033816;28;20461;-67
2022/05/31 13:04:56;;;;;;;15.67;15.27;;;21.00;64.50;;;;;;5033815;28;20452;-67
2022/05/31 13:07:39;;;;;;;15.63;15.23;;;21.00;64.50;;;;;;5033543;28;20449;-66
2022/05/31 13:10:33;;;;;;;16.20;15.70;;;21.10;64.60;;;;;;5033866;28;20445;-66